createdAt,value
2023-05-02T00:00:34.551Z,13.40
2023-05-02T00:03:07.722Z,13.40
2023-05-02T00:05:40.864Z,13.50
2023-05-02T00:08:12.872Z,13.40
2023-05-02T00:10:44.693Z,13.50
2023-05-02T00:13:16.536Z,13.40
2023-05-02T00:15:48.792Z,13.50
2023-05-02T00:18:20.778Z,13.50
2023-05-02T00:20:52.770Z,13.50
2023-05-02T00:23:24.629Z,13.50
2023-05-02T00:25:56.698Z,13.50
2023-05-02T00:28:28.645Z,13.50
2023-05-02T00:31:00.614Z,13.50
2023-05-02T00:33:32.584Z,13.40
2023-05-02T00:36:04.751Z,13.40
2023-05-02T00:38:36.860Z,13.40
2023-05-02T00:41:08.823Z,13.40
2023-05-02T00:43:41.134Z,13.40
2023-05-02T00:46:13.571Z,13.40
2023-05-02T00:48:45.824Z,13.30
2023-05-02T00:51:18.338Z,13.30
2023-05-02T00:53:50.851Z,13.30
2023-05-02T00:56:22.715Z,13.30
2023-05-02T00:58:55.146Z,13.20
2023-05-02T01:01:29.864Z,13.30
2023-05-02T01:04:15.738Z,13.40
2023-05-02T01:07:02.496Z,13.30
2023-05-02T01:09:53.842Z,13.30
2023-05-02T01:12:35.569Z,13.30
2023-05-02T01:15:12.397Z,13.30
2023-05-02T01:17:45.940Z,13.30
2023-05-02T01:20:21.672Z,13.20
2023-05-02T01:22:57.399Z,13.30
2023-05-02T01:25:46.837Z,13.50
2023-05-02T01:28:57.263Z,13.70
2023-05-02T01:31:37.368Z,13.70
2023-05-02T01:34:10.945Z,13.80
2023-05-02T01:36:46.818Z,13.70
2023-05-02T01:39:22.668Z,13.70
2023-05-02T01:41:58.372Z,13.80
2023-05-02T01:44:33.387Z,13.90
2023-05-02T01:47:07.865Z,13.80
2023-05-02T01:49:42.701Z,13.80
2023-05-02T01:52:16.832Z,13.80
2023-05-02T01:54:52.068Z,13.70
2023-05-02T01:57:24.345Z,13.60
2023-05-02T01:59:57.894Z,13.60
2023-05-02T02:02:30.522Z,13.60
2023-05-02T02:05:05.537Z,13.60
2023-05-02T02:07:37.890Z,13.60
2023-05-02T02:10:10.080Z,13.50
2023-05-02T02:13:04.411Z,13.60
2023-05-02T02:15:38.431Z,13.50
2023-05-02T02:18:14.760Z,13.50
2023-05-02T02:20:48.566Z,13.50
2023-05-02T02:23:23.203Z,13.50
2023-05-02T02:25:57.048Z,13.50
2023-05-02T02:28:28.932Z,13.50
2023-05-02T02:31:01.021Z,13.50
2023-05-02T02:33:33.014Z,13.50
2023-05-02T02:36:24.503Z,13.50
2023-05-02T02:39:03.758Z,13.40
2023-05-02T02:42:25.420Z,13.30
2023-05-02T02:45:12.440Z,13.30
2023-05-02T02:48:11.130Z,13.20
2023-05-02T02:51:06.168Z,13.20
2023-05-02T02:53:51.446Z,13.10
2023-05-02T02:56:30.041Z,13.20
2023-05-02T02:59:12.637Z,13.30
2023-05-02T03:01:49.606Z,13.30
2023-05-02T03:04:23.782Z,13.20
2023-05-02T03:06:56.003Z,13.20
2023-05-02T03:09:30.472Z,13.10
2023-05-02T03:12:02.531Z,13.10
2023-05-02T03:14:36.186Z,13.00
2023-05-02T03:17:11.052Z,13.00
2023-05-02T03:19:43.235Z,12.90
2023-05-02T03:22:15.454Z,13.00
2023-05-02T03:24:47.444Z,13.00
2023-05-02T03:27:20.094Z,13.00
2023-05-02T03:29:52.007Z,13.00
2023-05-02T03:32:24.874Z,13.00
2023-05-02T03:34:58.541Z,12.80
2023-05-02T03:37:36.114Z,12.80
2023-05-02T03:40:08.459Z,12.70
2023-05-02T03:42:42.646Z,12.70
2023-05-02T03:45:26.694Z,12.70
2023-05-02T03:47:58.946Z,12.80
2023-05-02T03:50:31.026Z,12.80
2023-05-02T03:53:03.133Z,12.70
2023-05-02T03:55:45.849Z,12.70
2023-05-02T03:58:25.788Z,12.70
2023-05-02T04:00:57.992Z,12.60
2023-05-02T04:03:32.404Z,12.50
2023-05-02T04:06:06.997Z,12.60
2023-05-02T04:08:39.842Z,12.70
2023-05-02T04:11:11.833Z,12.60
2023-05-02T04:13:44.363Z,12.60
2023-05-02T04:16:16.814Z,12.60
2023-05-02T04:18:48.778Z,12.70
2023-05-02T04:21:20.944Z,12.70
2023-05-02T04:23:53.561Z,12.60
2023-05-02T04:26:25.835Z,12.70
2023-05-02T04:29:04.603Z,12.70
2023-05-02T04:31:36.825Z,12.60
2023-05-02T04:34:08.971Z,12.60
2023-05-02T04:36:47.008Z,12.60
2023-05-02T04:39:24.059Z,12.70
2023-05-02T04:42:08.379Z,12.80
2023-05-02T04:44:49.120Z,13.00
2023-05-02T04:47:21.788Z,13.00
2023-05-02T04:49:53.845Z,12.90
2023-05-02T04:52:26.310Z,12.90
2023-05-02T04:54:58.268Z,12.90
2023-05-02T04:57:30.442Z,12.90
2023-05-02T05:00:05.688Z,13.00
2023-05-02T05:02:39.492Z,13.00
2023-05-02T05:05:11.884Z,12.90
2023-05-02T05:07:43.774Z,12.80
2023-05-02T05:10:16.545Z,12.70
2023-05-02T05:12:51.347Z,12.70
2023-05-02T05:15:25.558Z,12.70
2023-05-02T05:18:01.884Z,12.80
2023-05-02T05:20:34.031Z,12.80
2023-05-02T05:23:07.561Z,12.80
2023-05-02T05:25:40.461Z,12.90
2023-05-02T05:28:13.334Z,12.90
2023-05-02T05:30:45.172Z,13.00
2023-05-02T05:33:20.307Z,13.00
2023-05-02T05:35:52.441Z,12.90
2023-05-02T05:38:24.778Z,13.10
2023-05-02T05:40:56.688Z,13.10
2023-05-02T05:43:29.650Z,13.20
2023-05-02T05:46:03.087Z,13.20
2023-05-02T05:48:37.425Z,13.10
2023-05-02T05:51:09.439Z,13.20
2023-05-02T05:53:41.474Z,13.20
2023-05-02T05:56:15.989Z,13.10
2023-05-02T05:58:54.953Z,13.10
2023-05-02T06:01:27.115Z,13.20
2023-05-02T06:04:00.132Z,13.30
2023-05-02T06:06:32.762Z,13.20
2023-05-02T06:09:04.851Z,13.20
2023-05-02T06:11:38.323Z,13.30
2023-05-02T06:14:11.194Z,13.40
2023-05-02T06:16:43.289Z,13.40
2023-05-02T06:19:17.070Z,13.50
2023-05-02T06:21:49.026Z,13.60
2023-05-02T06:24:20.964Z,13.70
2023-05-02T06:26:53.004Z,13.70
2023-05-02T06:29:25.018Z,13.80
2023-05-02T06:31:57.205Z,13.80
2023-05-02T06:34:31.547Z,13.90
2023-05-02T06:37:03.376Z,13.90
2023-05-02T06:39:35.224Z,14.00
2023-05-02T06:42:07.102Z,14.10
2023-05-02T06:44:40.006Z,14.10
2023-05-02T06:47:12.074Z,14.10
2023-05-02T06:49:44.262Z,14.10
2023-05-02T06:52:16.354Z,14.30
2023-05-02T06:54:48.288Z,14.30
2023-05-02T06:57:20.228Z,14.30
2023-05-02T06:59:52.091Z,14.50
2023-05-02T07:02:24.046Z,14.50
2023-05-02T07:04:56.027Z,14.60
2023-05-02T07:07:27.881Z,14.60
2023-05-02T07:10:00.027Z,14.70
2023-05-02T07:12:32.272Z,14.70
2023-05-02T07:15:06.123Z,14.60
2023-05-02T07:17:37.977Z,14.50
2023-05-02T07:20:12.056Z,14.60
2023-05-02T07:22:43.982Z,14.70
2023-05-02T07:25:15.823Z,14.80
2023-05-02T07:27:47.766Z,14.80
2023-05-02T07:30:19.699Z,14.90
2023-05-02T07:32:51.644Z,14.90
2023-05-02T07:35:23.700Z,14.90
2023-05-02T07:37:55.825Z,14.90
2023-05-02T07:40:28.739Z,14.90
2023-05-02T07:43:03.478Z,14.80
2023-05-02T07:45:35.573Z,14.90
2023-05-02T07:48:07.488Z,14.90
2023-05-02T07:50:39.407Z,14.90
2023-05-02T07:53:11.626Z,15.00
2023-05-02T07:55:43.463Z,15.00
2023-05-02T07:58:15.301Z,15.00
2023-05-02T08:00:47.151Z,15.10
2023-05-02T08:03:19.171Z,15.20
2023-05-02T08:05:51.219Z,15.30
2023-05-02T08:08:23.455Z,15.40
2023-05-02T08:10:55.443Z,15.50
2023-05-02T08:13:27.774Z,15.60
2023-05-02T08:16:00.008Z,15.70
2023-05-02T08:18:31.945Z,15.80
2023-05-02T08:21:03.983Z,15.90
2023-05-02T08:23:35.928Z,15.90
2023-05-02T08:26:07.909Z,15.90
2023-05-02T08:28:42.051Z,16.00
2023-05-02T08:31:13.941Z,16.20
2023-05-02T08:33:46.378Z,16.40
2023-05-02T08:36:19.529Z,16.50
2023-05-02T08:38:51.393Z,16.60
2023-05-02T08:41:23.450Z,16.80
2023-05-02T08:43:56.568Z,17.00
2023-05-02T08:46:29.234Z,17.10
2023-05-02T08:49:02.486Z,17.10
2023-05-02T08:51:36.686Z,16.80
2023-05-02T08:54:10.172Z,16.70
2023-05-02T08:56:42.284Z,16.90
2023-05-02T08:59:14.132Z,17.00
2023-05-02T09:01:49.330Z,17.10
2023-05-02T09:04:24.880Z,17.20
2023-05-02T09:06:57.332Z,17.30
2023-05-02T09:09:31.735Z,17.40
2023-05-02T09:12:04.109Z,17.60
2023-05-02T09:14:36.012Z,17.60
2023-05-02T09:17:07.961Z,17.60
2023-05-02T09:19:40.051Z,17.70
2023-05-02T09:22:11.887Z,17.80
2023-05-02T09:24:44.568Z,17.80
2023-05-02T09:27:17.013Z,17.90
2023-05-02T09:29:48.849Z,18.00
2023-05-02T09:32:21.892Z,17.90
2023-05-02T09:35:06.863Z,17.70
2023-05-02T09:37:39.014Z,17.50
2023-05-02T09:40:11.423Z,17.40
2023-05-02T09:42:43.360Z,17.40
2023-05-02T09:45:25.849Z,17.40
2023-05-02T09:48:02.976Z,17.50
2023-05-02T09:50:35.863Z,17.40
2023-05-02T09:53:12.518Z,17.30
2023-05-02T09:55:44.581Z,17.20
2023-05-02T09:58:23.694Z,17.20
2023-05-02T10:00:55.748Z,17.30
2023-05-02T10:03:29.311Z,17.50
2023-05-02T10:06:02.007Z,17.50
2023-05-02T10:08:34.810Z,17.70
2023-05-02T10:11:09.137Z,17.80
2023-05-02T10:13:42.882Z,17.90
2023-05-02T10:16:19.984Z,18.00
2023-05-02T10:19:00.797Z,18.10
2023-05-02T10:21:33.570Z,18.10
2023-05-02T10:24:06.474Z,18.20
2023-05-02T10:26:39.077Z,18.20
2023-05-02T10:41:19.061Z,18.00
2023-05-02T10:43:51.013Z,17.90
2023-05-02T10:46:33.826Z,17.90
2023-05-02T10:49:11.256Z,18.00
2023-05-02T10:51:43.626Z,18.00
2023-05-02T10:54:19.308Z,17.90
2023-05-02T10:57:06.458Z,17.90
2023-05-02T10:59:42.689Z,18.00
2023-05-02T11:02:24.224Z,17.80
2023-05-02T11:05:05.308Z,17.70
2023-05-02T11:07:38.085Z,17.60
2023-05-02T11:10:20.298Z,17.70
2023-05-02T11:13:01.326Z,17.70
2023-05-02T11:15:33.496Z,17.70
2023-05-02T11:18:09.274Z,17.70
2023-05-02T11:20:43.043Z,17.70
2023-05-02T11:23:21.494Z,17.70
2023-05-02T11:26:03.370Z,17.70
2023-05-02T11:28:38.396Z,17.90
2023-05-02T11:31:28.392Z,17.90
2023-05-02T11:34:01.761Z,18.10
2023-05-02T11:36:34.913Z,18.20
2023-05-02T11:39:19.651Z,18.30
2023-05-02T11:41:51.588Z,18.30
2023-05-02T11:44:23.447Z,18.50
2023-05-02T11:46:56.097Z,18.40
2023-05-02T11:49:27.963Z,18.20
2023-05-02T11:52:00.747Z,18.10
2023-05-02T11:54:32.625Z,18.10
2023-05-02T11:57:04.600Z,18.10
2023-05-02T11:59:52.951Z,18.10
2023-05-02T12:02:43.820Z,18.10
2023-05-02T12:05:28.218Z,18.10
2023-05-02T12:08:01.830Z,18.00
2023-05-02T12:10:37.650Z,17.90
2023-05-02T12:13:10.143Z,17.90
2023-05-02T12:15:43.918Z,18.00
2023-05-02T12:18:16.007Z,18.10
2023-05-02T12:20:47.990Z,18.10
2023-05-02T12:23:21.308Z,18.20
2023-05-02T12:25:53.513Z,18.20
2023-05-02T12:28:25.329Z,18.30
2023-05-02T12:30:57.254Z,18.40
2023-05-02T12:33:29.165Z,18.50
2023-05-02T12:36:07.527Z,18.60
2023-05-02T12:38:39.490Z,18.70
2023-05-02T12:41:11.389Z,18.70
2023-05-02T12:43:49.589Z,18.60
2023-05-02T12:46:21.533Z,18.70
2023-05-02T12:49:03.226Z,18.80
2023-05-02T12:51:36.505Z,18.80
2023-05-02T12:54:08.508Z,18.80
2023-05-02T12:56:43.656Z,18.80
2023-05-02T12:59:32.712Z,18.70
2023-05-02T13:02:04.734Z,18.70
2023-05-02T13:04:41.596Z,18.70
2023-05-02T13:07:13.652Z,18.70
2023-05-02T13:09:45.605Z,18.60
2023-05-02T13:12:18.200Z,18.60
2023-05-02T13:14:50.153Z,18.60
2023-05-02T13:17:22.534Z,18.50
2023-05-02T13:20:01.305Z,18.40
2023-05-02T13:22:33.944Z,18.40
2023-05-02T13:25:07.037Z,18.40
2023-05-02T13:27:38.986Z,18.40
2023-05-02T13:30:12.059Z,18.40
2023-05-02T13:32:44.219Z,18.40
2023-05-02T13:35:16.105Z,18.50
2023-05-02T13:37:48.021Z,18.50
2023-05-02T13:40:19.976Z,18.60
2023-05-02T13:42:51.936Z,18.70
2023-05-02T13:45:23.903Z,18.70
2023-05-02T13:47:56.067Z,18.70
2023-05-02T13:50:28.074Z,18.70
2023-05-02T13:52:59.977Z,18.70
2023-05-02T13:55:31.943Z,18.60
2023-05-02T13:58:03.882Z,18.60
2023-05-02T14:00:35.783Z,18.70
2023-05-02T14:03:07.799Z,18.70
2023-05-02T14:05:43.579Z,18.70
2023-05-02T14:08:18.496Z,18.70
2023-05-02T14:10:50.409Z,18.70
2023-05-02T14:13:22.349Z,18.70
2023-05-02T14:15:54.492Z,18.70
2023-05-02T14:18:26.489Z,18.80
2023-05-02T14:21:00.150Z,18.80
2023-05-02T14:23:32.042Z,18.90
2023-05-02T14:26:04.211Z,18.80
2023-05-02T14:28:38.214Z,18.80
2023-05-02T14:31:11.546Z,18.70
2023-05-02T14:33:43.513Z,18.60
2023-05-02T14:36:15.466Z,18.60
2023-05-02T14:38:47.423Z,18.60
2023-05-02T14:41:19.396Z,18.40
2023-05-02T14:43:52.954Z,18.30
2023-05-02T14:46:24.817Z,18.30
2023-05-02T14:48:57.102Z,18.30
2023-05-02T14:51:29.166Z,18.30
2023-05-02T14:54:01.559Z,18.30
2023-05-02T14:56:33.731Z,18.30
2023-05-02T14:59:05.747Z,18.20
2023-05-02T15:01:37.797Z,18.10
2023-05-02T15:04:10.660Z,18.20
2023-05-02T15:06:42.814Z,18.20
2023-05-02T15:09:16.048Z,18.20
2023-05-02T15:11:48.391Z,18.10
2023-05-02T15:14:20.310Z,18.10
2023-05-02T15:16:52.292Z,18.20
2023-05-02T15:19:25.267Z,18.10
2023-05-02T15:22:00.009Z,18.00
2023-05-02T15:24:32.011Z,18.00
2023-05-02T15:27:04.330Z,18.00
2023-05-02T15:29:36.298Z,18.00
2023-05-02T15:32:08.387Z,18.00
2023-05-02T15:34:40.407Z,18.00
2023-05-02T15:37:12.285Z,18.00
2023-05-02T15:39:44.144Z,18.00
2023-05-02T15:42:16.263Z,18.00
2023-05-02T15:44:48.146Z,18.00
2023-05-02T15:47:22.418Z,18.00
2023-05-02T15:49:55.080Z,17.90
2023-05-02T15:52:27.049Z,17.90
2023-05-02T15:55:01.063Z,17.80
2023-05-02T15:57:32.945Z,17.80
2023-05-02T16:00:06.113Z,17.70
2023-05-02T16:02:40.535Z,17.70
2023-05-02T16:05:12.722Z,17.70
2023-05-02T16:07:44.563Z,17.70
2023-05-02T16:10:18.871Z,17.60
2023-05-02T16:12:50.878Z,17.60
2023-05-02T16:15:23.083Z,17.60
2023-05-02T16:17:54.984Z,17.60
2023-05-02T16:20:28.413Z,17.60
2023-05-02T16:23:01.102Z,17.50
2023-05-02T16:25:32.929Z,17.50
2023-05-02T16:28:07.347Z,17.40
2023-05-02T16:30:39.424Z,17.40
2023-05-02T16:33:11.697Z,17.40
2023-05-02T16:35:43.869Z,17.40
2023-05-02T16:38:15.934Z,17.40
2023-05-02T16:40:48.005Z,17.30
2023-05-02T16:43:20.258Z,17.30
2023-05-02T16:46:06.311Z,17.30
2023-05-02T16:48:38.271Z,17.20
2023-05-02T16:51:10.139Z,17.20
2023-05-02T16:53:43.579Z,17.20
2023-05-02T16:56:15.399Z,17.10
2023-05-02T16:58:47.263Z,17.10
2023-05-02T17:01:19.319Z,17.10
2023-05-02T17:03:51.502Z,17.10
2023-05-02T17:06:23.610Z,17.10
2023-05-02T17:08:56.277Z,17.10
2023-05-02T17:11:28.549Z,17.10
2023-05-02T17:14:00.918Z,17.10
2023-05-02T17:16:32.749Z,17.10
2023-05-02T17:19:04.660Z,17.10
2023-05-02T17:21:36.823Z,17.10
2023-05-02T17:24:08.851Z,17.10
2023-05-02T17:26:41.149Z,17.10
2023-05-02T17:29:13.028Z,17.10
2023-05-02T17:31:44.880Z,17.10
2023-05-02T17:34:16.856Z,17.10
2023-05-02T17:36:48.708Z,17.10
2023-05-02T17:39:20.582Z,17.10
2023-05-02T17:41:52.437Z,17.10
2023-05-02T17:44:24.286Z,17.00
2023-05-02T17:46:56.832Z,17.10
2023-05-02T17:49:28.675Z,17.10
2023-05-02T17:52:00.589Z,17.10
2023-05-02T17:54:32.457Z,17.20
2023-05-02T17:57:04.765Z,17.10
2023-05-02T17:59:39.658Z,17.10
2023-05-02T18:02:11.710Z,17.10
2023-05-02T18:04:45.439Z,17.10
2023-05-02T18:07:23.668Z,17.00
2023-05-02T18:10:03.617Z,17.00
2023-05-02T18:12:36.054Z,17.00
2023-05-02T18:15:09.212Z,17.10
2023-05-02T18:17:41.285Z,17.10
2023-05-02T18:20:13.700Z,17.10
2023-05-02T18:22:46.213Z,17.10
2023-05-02T18:25:18.356Z,17.10
2023-05-02T18:27:51.272Z,17.10
2023-05-02T18:30:23.202Z,17.10
2023-05-02T18:32:55.136Z,17.10
2023-05-02T18:35:27.315Z,17.00
2023-05-02T18:37:59.284Z,17.10
2023-05-02T18:40:31.410Z,17.10
2023-05-02T18:43:03.958Z,17.00
2023-05-02T18:45:36.402Z,16.90
2023-05-02T18:48:08.448Z,16.80
2023-05-02T18:50:40.470Z,16.70
2023-05-02T18:53:13.228Z,16.60
2023-05-02T18:55:45.089Z,16.60
2023-05-02T18:58:16.961Z,16.60
2023-05-02T19:00:49.274Z,16.70
2023-05-02T19:03:24.283Z,16.60
2023-05-02T19:05:56.987Z,16.60
2023-05-02T19:08:28.873Z,16.50
2023-05-02T19:11:05.078Z,16.40
2023-05-02T19:13:37.243Z,16.40
2023-05-02T19:16:13.684Z,16.40
2023-05-02T19:18:45.889Z,16.30
2023-05-02T19:21:18.373Z,16.30
2023-05-02T19:23:51.630Z,16.30
2023-05-02T19:26:23.943Z,16.30
2023-05-02T19:28:58.502Z,16.30
2023-05-02T19:31:30.714Z,16.20
2023-05-02T19:34:04.055Z,16.20
2023-05-02T19:36:39.531Z,16.20
2023-05-02T19:39:13.190Z,16.10
2023-05-02T19:41:46.648Z,16.10
2023-05-02T19:44:23.716Z,16.10
2023-05-02T19:46:55.833Z,16.00
2023-05-02T19:49:27.720Z,16.10
2023-05-02T19:51:59.722Z,16.10
2023-05-02T19:54:33.348Z,16.10
2023-05-02T19:57:05.340Z,16.10
2023-05-02T19:59:37.244Z,16.10
2023-05-02T20:02:10.136Z,16.20
2023-05-02T20:04:42.175Z,16.20
2023-05-02T20:07:14.053Z,16.20
2023-05-02T20:09:45.914Z,16.10
2023-05-02T20:12:17.826Z,16.10
2023-05-02T20:14:49.650Z,16.20
2023-05-02T20:17:21.530Z,16.10
2023-05-02T20:19:53.502Z,16.10
2023-05-02T20:22:25.430Z,16.10
2023-05-02T20:24:57.247Z,16.10
2023-05-02T20:27:29.059Z,16.20
2023-05-02T20:30:01.146Z,16.20
2023-05-02T20:32:33.204Z,16.10
2023-05-02T20:35:05.699Z,16.10
2023-05-02T20:37:38.083Z,16.10
2023-05-02T20:40:10.591Z,15.80
2023-05-02T20:42:43.879Z,15.80
2023-05-02T20:45:16.554Z,15.80
2023-05-02T20:47:48.485Z,15.70
2023-05-02T20:50:20.553Z,15.60
2023-05-02T20:52:52.673Z,15.40
2023-05-02T20:55:24.685Z,15.50
2023-05-02T20:57:56.632Z,15.60
2023-05-02T21:00:28.858Z,15.60
2023-05-02T21:03:00.890Z,15.60
2023-05-02T21:05:32.877Z,15.40
2023-05-02T21:08:04.972Z,15.30
2023-05-02T21:10:36.848Z,15.30
2023-05-02T21:13:08.778Z,15.40
2023-05-02T21:15:41.214Z,15.30
2023-05-02T21:18:13.252Z,15.30
2023-05-02T21:20:51.143Z,15.20
2023-05-02T21:23:22.994Z,15.00
2023-05-02T21:25:55.599Z,15.00
2023-05-02T21:28:27.582Z,15.10
2023-05-02T21:31:01.800Z,15.20
2023-05-02T21:33:33.841Z,15.30
2023-05-02T21:36:05.937Z,15.40
2023-05-02T21:38:37.910Z,15.30
2023-05-02T21:41:10.096Z,15.20
2023-05-02T21:43:41.993Z,15.00
2023-05-02T21:46:14.010Z,14.90
2023-05-02T21:48:46.100Z,14.90
2023-05-02T21:51:18.249Z,15.00
2023-05-02T21:53:50.233Z,15.10
2023-05-02T21:56:22.113Z,15.00
2023-05-02T21:58:54.117Z,15.00
2023-05-02T22:01:26.576Z,15.00
2023-05-02T22:03:58.822Z,14.90
2023-05-02T22:06:31.562Z,14.90
2023-05-02T22:09:08.347Z,15.00
2023-05-02T22:11:40.278Z,15.00
2023-05-02T22:14:12.098Z,15.00
2023-05-02T22:16:44.034Z,15.10
2023-05-02T22:19:16.008Z,15.00
2023-05-02T22:21:47.808Z,15.00
2023-05-02T22:24:19.939Z,15.00
2023-05-02T22:26:51.847Z,14.90
2023-05-02T22:29:23.814Z,15.00
2023-05-02T22:31:55.845Z,15.00
2023-05-02T22:34:27.739Z,15.10
2023-05-02T22:36:59.626Z,15.10
2023-05-02T22:39:31.638Z,15.00
2023-05-02T22:42:03.591Z,15.00
2023-05-02T22:44:46.746Z,14.90
2023-05-02T22:47:19.179Z,14.90
2023-05-02T22:49:52.688Z,15.00
2023-05-02T22:52:27.250Z,14.90
2023-05-02T22:54:59.897Z,14.80
2023-05-02T22:57:31.922Z,14.80
2023-05-02T23:00:09.306Z,14.80
2023-05-02T23:02:41.249Z,14.70
2023-05-02T23:05:14.272Z,14.60
2023-05-02T23:07:46.236Z,14.60
2023-05-02T23:10:18.087Z,14.60
2023-05-02T23:12:50.137Z,14.60
2023-05-02T23:15:22.058Z,14.50
2023-05-02T23:17:53.958Z,14.60
2023-05-02T23:20:25.948Z,14.70
2023-05-02T23:22:57.945Z,14.60
2023-05-02T23:25:30.345Z,14.60
2023-05-02T23:28:02.284Z,14.70
2023-05-02T23:30:34.340Z,14.70
2023-05-02T23:33:06.443Z,14.90
2023-05-02T23:35:38.455Z,14.90
2023-05-02T23:38:10.413Z,14.80
2023-05-02T23:40:42.366Z,14.70
2023-05-02T23:43:14.365Z,14.60
2023-05-02T23:45:46.299Z,14.40
2023-05-02T23:48:18.169Z,14.50
2023-05-02T23:50:50.176Z,14.40
2023-05-02T23:53:22.075Z,14.40
2023-05-02T23:55:54.003Z,14.40
2023-05-02T23:58:26.034Z,14.40
